sensor_id;sensor_type;location;lat;lon;timestamp;P1;durP1;ratioP1;P2;durP2;ratioP2
6336;SDS011;3201;49.962;11.618;2022-09-20T00:01:20;1.03;;;0.60;;
6336;SDS011;3201;49.962;11.618;2022-09-20T00:03:52;1.03;;;0.43;;
6336;SDS011;3201;49.962;11.618;2022-09-20T00:06:19;0.60;;;0.50;;
6336;SDS011;3201;49.962;11.618;2022-09-20T00:08:46;1.27;;;0.60;;
6336;SDS011;3201;49.962;11.618;2022-09-20T00:11:14;0.80;;;0.50;;
6336;SDS011;3201;49.962;11.618;2022-09-20T00:13:42;0.60;;;0.43;;
6336;SDS011;3201;49.962;11.618;2022-09-20T00:16:09;1.10;;;0.60;;
6336;SDS011;3201;49.962;11.618;2022-09-20T00:18:36;2.30;;;0.50;;
6336;SDS011;3201;49.962;11.618;2022-09-20T00:21:02;1.57;;;0.53;;
6336;SDS011;3201;49.962;11.618;2022-09-20T00:23:27;0.70;;;0.50;;
6336;SDS011;3201;49.962;11.618;2022-09-20T00:25:56;1.03;;;0.90;;
6336;SDS011;3201;49.962;11.618;2022-09-20T00:28:23;1.17;;;0.70;;
6336;SDS011;3201;49.962;11.618;2022-09-20T00:30:50;0.90;;;0.50;;
6336;SDS011;3201;49.962;11.618;2022-09-20T00:33:16;0.97;;;0.70;;
6336;SDS011;3201;49.962;11.618;2022-09-20T00:35:42;0.70;;;0.63;;
6336;SDS011;3201;49.962;11.618;2022-09-20T00:38:09;0.93;;;0.50;;
6336;SDS011;3201;49.962;11.618;2022-09-20T00:40:34;1.07;;;0.70;;
6336;SDS011;3201;49.962;11.618;2022-09-20T00:43:00;2.60;;;0.50;;
6336;SDS011;3201;49.962;11.618;2022-09-20T00:45:26;1.03;;;0.60;;
6336;SDS011;3201;49.962;11.618;2022-09-20T00:47:54;0.53;;;0.43;;
6336;SDS011;3201;49.962;11.618;2022-09-20T00:52:51;0.70;;;0.60;;
6336;SDS011;3201;49.962;11.618;2022-09-20T00:55:19;0.70;;;0.60;;
6336;SDS011;3201;49.962;11.618;2022-09-20T00:57:45;0.60;;;0.50;;
6336;SDS011;3201;49.962;11.618;2022-09-20T01:00:11;1.43;;;0.70;;
6336;SDS011;3201;49.962;11.618;2022-09-20T01:02:39;1.10;;;0.80;;
6336;SDS011;3201;49.962;11.618;2022-09-20T01:05:07;1.17;;;0.60;;
6336;SDS011;3201;49.962;11.618;2022-09-20T01:07:33;0.70;;;0.50;;
6336;SDS011;3201;49.962;11.618;2022-09-20T01:09:59;1.20;;;0.70;;
6336;SDS011;3201;49.962;11.618;2022-09-20T01:12:26;1.20;;;0.60;;
6336;SDS011;3201;49.962;11.618;2022-09-20T01:14:54;0.70;;;0.50;;
6336;SDS011;3201;49.962;11.618;2022-09-20T01:17:21;0.80;;;0.50;;
6336;SDS011;3201;49.962;11.618;2022-09-20T01:25:10;1.53;;;0.50;;
6336;SDS011;3201;49.962;11.618;2022-09-20T01:30:08;4.60;;;0.70;;
6336;SDS011;3201;49.962;11.618;2022-09-20T01:32:43;1.43;;;0.80;;
6336;SDS011;3201;49.962;11.618;2022-09-20T01:35:15;0.70;;;0.60;;
6336;SDS011;3201;49.962;11.618;2022-09-20T01:37:48;2.33;;;0.63;;
6336;SDS011;3201;49.962;11.618;2022-09-20T01:40:23;2.00;;;0.63;;
6336;SDS011;3201;49.962;11.618;2022-09-20T01:42:59;1.13;;;0.60;;
6336;SDS011;3201;49.962;11.618;2022-09-20T01:45:40;1.13;;;0.70;;
6336;SDS011;3201;49.962;11.618;2022-09-20T01:48:13;0.80;;;0.40;;
6336;SDS011;3201;49.962;11.618;2022-09-20T01:51:09;0.70;;;0.50;;
6336;SDS011;3201;49.962;11.618;2022-09-20T02:02:28;1.10;;;0.70;;
6336;SDS011;3201;49.962;11.618;2022-09-20T02:05:21;1.83;;;0.60;;
6336;SDS011;3201;49.962;11.618;2022-09-20T02:08:02;0.90;;;0.53;;
6336;SDS011;3201;49.962;11.618;2022-09-20T02:10:46;1.30;;;0.60;;
6336;SDS011;3201;49.962;11.618;2022-09-20T02:16:26;1.00;;;0.83;;
6336;SDS011;3201;49.962;11.618;2022-09-20T02:20:00;1.17;;;0.73;;
6336;SDS011;3201;49.962;11.618;2022-09-20T02:22:09;0.67;;;0.60;;
6336;SDS011;3201;49.962;11.618;2022-09-20T02:24:50;0.73;;;0.47;;
6336;SDS011;3201;49.962;11.618;2022-09-20T02:39:26;0.70;;;0.50;;
6336;SDS011;3201;49.962;11.618;2022-09-20T02:42:17;0.90;;;0.60;;
6336;SDS011;3201;49.962;11.618;2022-09-20T02:44:10;1.10;;;0.70;;
6336;SDS011;3201;49.962;11.618;2022-09-20T02:51:55;0.97;;;0.53;;
6336;SDS011;3201;49.962;11.618;2022-09-20T02:57:05;0.83;;;0.53;;
6336;SDS011;3201;49.962;11.618;2022-09-20T03:00:00;0.80;;;0.50;;
6336;SDS011;3201;49.962;11.618;2022-09-20T03:02:31;0.77;;;0.70;;
6336;SDS011;3201;49.962;11.618;2022-09-20T03:05:42;0.73;;;0.63;;
6336;SDS011;3201;49.962;11.618;2022-09-20T03:09:10;1.63;;;0.70;;
6336;SDS011;3201;49.962;11.618;2022-09-20T03:13:12;1.53;;;0.57;;
6336;SDS011;3201;49.962;11.618;2022-09-20T03:16:01;0.67;;;0.50;;
6336;SDS011;3201;49.962;11.618;2022-09-20T03:21:21;0.90;;;0.50;;
6336;SDS011;3201;49.962;11.618;2022-09-20T03:23:58;0.63;;;0.43;;
6336;SDS011;3201;49.962;11.618;2022-09-20T03:29:15;0.80;;;0.40;;
6336;SDS011;3201;49.962;11.618;2022-09-20T03:32:22;1.10;;;0.67;;
6336;SDS011;3201;49.962;11.618;2022-09-20T03:35:04;0.90;;;0.67;;
6336;SDS011;3201;49.962;11.618;2022-09-20T03:39:08;0.50;;;0.40;;
6336;SDS011;3201;49.962;11.618;2022-09-20T03:40:56;0.73;;;0.37;;
6336;SDS011;3201;49.962;11.618;2022-09-20T03:46:03;0.80;;;0.40;;
6336;SDS011;3201;49.962;11.618;2022-09-20T03:51:12;1.30;;;0.80;;
6336;SDS011;3201;49.962;11.618;2022-09-20T03:57:10;0.70;;;0.50;;
6336;SDS011;3201;49.962;11.618;2022-09-20T04:02:32;0.70;;;0.53;;
6336;SDS011;3201;49.962;11.618;2022-09-20T04:05:08;1.53;;;0.60;;
6336;SDS011;3201;49.962;11.618;2022-09-20T04:07:51;3.90;;;0.60;;
6336;SDS011;3201;49.962;11.618;2022-09-20T04:13:13;0.70;;;0.50;;
6336;SDS011;3201;49.962;11.618;2022-09-20T04:17:04;0.63;;;0.47;;
6336;SDS011;3201;49.962;11.618;2022-09-20T04:21:07;0.57;;;0.40;;
6336;SDS011;3201;49.962;11.618;2022-09-20T04:21:56;1.00;;;0.80;;
6336;SDS011;3201;49.962;11.618;2022-09-20T04:24:27;0.57;;;0.47;;
6336;SDS011;3201;49.962;11.618;2022-09-20T04:26:58;1.00;;;0.40;;
6336;SDS011;3201;49.962;11.618;2022-09-20T04:30:25;1.00;;;0.60;;
6336;SDS011;3201;49.962;11.618;2022-09-20T04:32:32;1.23;;;0.50;;
6336;SDS011;3201;49.962;11.618;2022-09-20T04:37:50;0.80;;;0.53;;
6336;SDS011;3201;49.962;11.618;2022-09-20T04:40:36;4.17;;;0.60;;
6336;SDS011;3201;49.962;11.618;2022-09-20T04:46:59;0.70;;;0.40;;
6336;SDS011;3201;49.962;11.618;2022-09-20T04:49:43;1.10;;;0.40;;
6336;SDS011;3201;49.962;11.618;2022-09-20T04:52:55;0.60;;;0.40;;
6336;SDS011;3201;49.962;11.618;2022-09-20T04:57:26;0.90;;;0.60;;
6336;SDS011;3201;49.962;11.618;2022-09-20T05:00:11;0.90;;;0.43;;
6336;SDS011;3201;49.962;11.618;2022-09-20T05:02:47;0.63;;;0.60;;
6336;SDS011;3201;49.962;11.618;2022-09-20T05:17:21;1.10;;;0.50;;
6336;SDS011;3201;49.962;11.618;2022-09-20T05:20:05;1.43;;;0.73;;
6336;SDS011;3201;49.962;11.618;2022-09-20T05:27:56;1.77;;;0.60;;
6336;SDS011;3201;49.962;11.618;2022-09-20T05:30:32;0.60;;;0.40;;
6336;SDS011;3201;49.962;11.618;2022-09-20T05:35:03;3.03;;;1.20;;
6336;SDS011;3201;49.962;11.618;2022-09-20T05:41:52;1.27;;;0.60;;
6336;SDS011;3201;49.962;11.618;2022-09-20T05:47:30;0.60;;;0.33;;
6336;SDS011;3201;49.962;11.618;2022-09-20T05:50:35;0.50;;;0.40;;
6336;SDS011;3201;49.962;11.618;2022-09-20T05:52:55;0.83;;;0.53;;
6336;SDS011;3201;49.962;11.618;2022-09-20T06:01:15;0.87;;;0.57;;
6336;SDS011;3201;49.962;11.618;2022-09-20T06:04:20;1.30;;;0.60;;
6336;SDS011;3201;49.962;11.618;2022-09-20T06:09:39;0.80;;;0.50;;
6336;SDS011;3201;49.962;11.618;2022-09-20T06:22:33;0.90;;;0.60;;
6336;SDS011;3201;49.962;11.618;2022-09-20T06:25:09;1.40;;;0.63;;
6336;SDS011;3201;49.962;11.618;2022-09-20T06:30:17;4.97;;;0.50;;
6336;SDS011;3201;49.962;11.618;2022-09-20T06:35:36;1.57;;;0.73;;
6336;SDS011;3201;49.962;11.618;2022-09-20T06:41:28;1.57;;;0.50;;
6336;SDS011;3201;49.962;11.618;2022-09-20T06:43:56;1.90;;;0.60;;
6336;SDS011;3201;49.962;11.618;2022-09-20T06:46:23;1.60;;;0.50;;
6336;SDS011;3201;49.962;11.618;2022-09-20T06:48:54;3.43;;;0.67;;
6336;SDS011;3201;49.962;11.618;2022-09-20T06:51:20;2.30;;;0.60;;
6336;SDS011;3201;49.962;11.618;2022-09-20T06:53:46;2.83;;;0.57;;
6336;SDS011;3201;49.962;11.618;2022-09-20T06:56:16;2.10;;;1.30;;
6336;SDS011;3201;49.962;11.618;2022-09-20T06:58:44;4.57;;;3.77;;
6336;SDS011;3201;49.962;11.618;2022-09-20T07:01:09;6.90;;;4.50;;
6336;SDS011;3201;49.962;11.618;2022-09-20T07:03:35;12.57;;;8.27;;
6336;SDS011;3201;49.962;11.618;2022-09-20T07:06:01;14.53;;;9.60;;
6336;SDS011;3201;49.962;11.618;2022-09-20T07:08:28;24.17;;;13.17;;
6336;SDS011;3201;49.962;11.618;2022-09-20T07:10:53;17.03;;;13.07;;
6336;SDS011;3201;49.962;11.618;2022-09-20T07:13:19;20.90;;;13.53;;
6336;SDS011;3201;49.962;11.618;2022-09-20T07:15:44;19.90;;;14.80;;
6336;SDS011;3201;49.962;11.618;2022-09-20T07:18:10;35.33;;;18.03;;
6336;SDS011;3201;49.962;11.618;2022-09-20T07:20:35;30.10;;;18.93;;
6336;SDS011;3201;49.962;11.618;2022-09-20T07:23:01;42.20;;;22.83;;
6336;SDS011;3201;49.962;11.618;2022-09-20T07:25:26;53.10;;;28.60;;
6336;SDS011;3201;49.962;11.618;2022-09-20T07:27:52;40.27;;;28.47;;
6336;SDS011;3201;49.962;11.618;2022-09-20T07:30:18;40.87;;;29.40;;
6336;SDS011;3201;49.962;11.618;2022-09-20T07:32:44;76.47;;;41.93;;
6336;SDS011;3201;49.962;11.618;2022-09-20T07:35:09;71.90;;;43.87;;
6336;SDS011;3201;49.962;11.618;2022-09-20T07:37:35;67.87;;;41.50;;
6336;SDS011;3201;49.962;11.618;2022-09-20T07:40:02;70.27;;;44.90;;
6336;SDS011;3201;49.962;11.618;2022-09-20T07:42:29;85.07;;;45.20;;
6336;SDS011;3201;49.962;11.618;2022-09-20T07:44:55;85.80;;;50.57;;
6336;SDS011;3201;49.962;11.618;2022-09-20T07:47:20;88.60;;;51.63;;
6336;SDS011;3201;49.962;11.618;2022-09-20T07:49:49;85.40;;;54.30;;
6336;SDS011;3201;49.962;11.618;2022-09-20T07:52:14;77.23;;;49.80;;
6336;SDS011;3201;49.962;11.618;2022-09-20T07:54:40;95.93;;;57.37;;
6336;SDS011;3201;49.962;11.618;2022-09-20T07:57:06;95.60;;;58.23;;
6336;SDS011;3201;49.962;11.618;2022-09-20T07:59:31;93.90;;;62.57;;
6336;SDS011;3201;49.962;11.618;2022-09-20T08:01:56;101.27;;;61.80;;
6336;SDS011;3201;49.962;11.618;2022-09-20T08:04:24;100.30;;;64.63;;
6336;SDS011;3201;49.962;11.618;2022-09-20T08:06:50;95.20;;;59.73;;
6336;SDS011;3201;49.962;11.618;2022-09-20T08:09:15;80.63;;;51.40;;
6336;SDS011;3201;49.962;11.618;2022-09-20T08:11:41;70.33;;;47.37;;
6336;SDS011;3201;49.962;11.618;2022-09-20T08:14:08;71.67;;;43.60;;
6336;SDS011;3201;49.962;11.618;2022-09-20T08:16:39;75.90;;;43.57;;
6336;SDS011;3201;49.962;11.618;2022-09-20T08:19:06;60.37;;;40.80;;
6336;SDS011;3201;49.962;11.618;2022-09-20T08:21:33;57.50;;;39.17;;
6336;SDS011;3201;49.962;11.618;2022-09-20T08:23:59;50.97;;;35.93;;
6336;SDS011;3201;49.962;11.618;2022-09-20T08:26:26;47.53;;;32.93;;
6336;SDS011;3201;49.962;11.618;2022-09-20T08:28:53;45.60;;;32.73;;
6336;SDS011;3201;49.962;11.618;2022-09-20T08:31:21;45.03;;;30.83;;
6336;SDS011;3201;49.962;11.618;2022-09-20T08:33:48;40.77;;;28.63;;
6336;SDS011;3201;49.962;11.618;2022-09-20T08:36:16;40.33;;;27.83;;
6336;SDS011;3201;49.962;11.618;2022-09-20T08:38:43;47.27;;;25.70;;
6336;SDS011;3201;49.962;11.618;2022-09-20T08:41:10;36.60;;;25.10;;
6336;SDS011;3201;49.962;11.618;2022-09-20T08:43:43;34.33;;;24.60;;
6336;SDS011;3201;49.962;11.618;2022-09-20T08:46:13;31.47;;;22.60;;
6336;SDS011;3201;49.962;11.618;2022-09-20T08:48:40;31.33;;;21.37;;
6336;SDS011;3201;49.962;11.618;2022-09-20T08:51:08;31.07;;;20.00;;
6336;SDS011;3201;49.962;11.618;2022-09-20T08:53:34;29.77;;;20.27;;
6336;SDS011;3201;49.962;11.618;2022-09-20T08:56:00;25.20;;;18.57;;
6336;SDS011;3201;49.962;11.618;2022-09-20T08:58:25;31.53;;;19.60;;
6336;SDS011;3201;49.962;11.618;2022-09-20T09:00:51;26.60;;;18.53;;
6336;SDS011;3201;49.962;11.618;2022-09-20T09:03:18;25.27;;;16.50;;
6336;SDS011;3201;49.962;11.618;2022-09-20T09:05:45;22.93;;;15.50;;
6336;SDS011;3201;49.962;11.618;2022-09-20T09:08:13;22.37;;;14.30;;
6336;SDS011;3201;49.962;11.618;2022-09-20T09:10:42;25.23;;;14.80;;
6336;SDS011;3201;49.962;11.618;2022-09-20T09:13:13;17.53;;;14.13;;
6336;SDS011;3201;49.962;11.618;2022-09-20T09:15:44;20.60;;;14.00;;
6336;SDS011;3201;49.962;11.618;2022-09-20T09:18:17;17.23;;;11.07;;
6336;SDS011;3201;49.962;11.618;2022-09-20T09:20:42;26.27;;;12.37;;
6336;SDS011;3201;49.962;11.618;2022-09-20T09:23:21;17.03;;;12.17;;
6336;SDS011;3201;49.962;11.618;2022-09-20T09:25:51;17.50;;;12.20;;
6336;SDS011;3201;49.962;11.618;2022-09-20T09:28:19;16.40;;;11.10;;
6336;SDS011;3201;49.962;11.618;2022-09-20T09:30:47;18.10;;;9.93;;
6336;SDS011;3201;49.962;11.618;2022-09-20T09:33:29;20.03;;;10.90;;
6336;SDS011;3201;49.962;11.618;2022-09-20T09:35:57;14.90;;;10.00;;
6336;SDS011;3201;49.962;11.618;2022-09-20T09:38:26;11.47;;;9.10;;
6336;SDS011;3201;49.962;11.618;2022-09-20T09:40:57;15.53;;;8.70;;
6336;SDS011;3201;49.962;11.618;2022-09-20T09:43:25;14.73;;;9.20;;
6336;SDS011;3201;49.962;11.618;2022-09-20T09:45:54;13.03;;;8.43;;
6336;SDS011;3201;49.962;11.618;2022-09-20T09:48:22;11.63;;;7.77;;
6336;SDS011;3201;49.962;11.618;2022-09-20T09:50:49;15.20;;;9.03;;
6336;SDS011;3201;49.962;11.618;2022-09-20T09:53:20;11.30;;;7.17;;
6336;SDS011;3201;49.962;11.618;2022-09-20T09:55:50;11.53;;;7.83;;
6336;SDS011;3201;49.962;11.618;2022-09-20T10:01:13;9.67;;;7.60;;
6336;SDS011;3201;49.962;11.618;2022-09-20T10:03:51;9.17;;;6.70;;
6336;SDS011;3201;49.962;11.618;2022-09-20T10:06:22;7.57;;;5.80;;
6336;SDS011;3201;49.962;11.618;2022-09-20T10:09:59;9.40;;;6.23;;
6336;SDS011;3201;49.962;11.618;2022-09-20T10:22:38;12.87;;;6.10;;
6336;SDS011;3201;49.962;11.618;2022-09-20T10:29:19;10.73;;;5.63;;
6336;SDS011;3201;49.962;11.618;2022-09-20T10:31:08;10.00;;;5.33;;
6336;SDS011;3201;49.962;11.618;2022-09-20T10:39:50;6.63;;;4.53;;
6336;SDS011;3201;49.962;11.618;2022-09-20T10:47:59;6.63;;;4.07;;
6336;SDS011;3201;49.962;11.618;2022-09-20T10:50:38;6.83;;;4.60;;
6336;SDS011;3201;49.962;11.618;2022-09-20T10:53:27;6.83;;;4.30;;
6336;SDS011;3201;49.962;11.618;2022-09-20T11:01:18;6.70;;;3.77;;
6336;SDS011;3201;49.962;11.618;2022-09-20T11:09:45;8.50;;;3.80;;
6336;SDS011;3201;49.962;11.618;2022-09-20T11:14:51;5.37;;;4.10;;
6336;SDS011;3201;49.962;11.618;2022-09-20T11:17:21;6.43;;;3.07;;
6336;SDS011;3201;49.962;11.618;2022-09-20T11:19:55;5.87;;;3.50;;
6336;SDS011;3201;49.962;11.618;2022-09-20T11:25:07;6.30;;;3.43;;
6336;SDS011;3201;49.962;11.618;2022-09-20T11:27:57;5.10;;;3.20;;
6336;SDS011;3201;49.962;11.618;2022-09-20T11:30:28;10.03;;;4.03;;
6336;SDS011;3201;49.962;11.618;2022-09-20T11:32:58;4.03;;;3.30;;
6336;SDS011;3201;49.962;11.618;2022-09-20T11:35:29;4.30;;;2.93;;
6336;SDS011;3201;49.962;11.618;2022-09-20T11:40:31;6.10;;;2.80;;
6336;SDS011;3201;49.962;11.618;2022-09-20T11:42:59;6.93;;;3.47;;
6336;SDS011;3201;49.962;11.618;2022-09-20T11:45:26;4.10;;;2.63;;
6336;SDS011;3201;49.962;11.618;2022-09-20T11:47:54;3.60;;;2.73;;
6336;SDS011;3201;49.962;11.618;2022-09-20T11:54:15;3.97;;;2.90;;
6336;SDS011;3201;49.962;11.618;2022-09-20T11:56:18;7.23;;;2.83;;
6336;SDS011;3201;49.962;11.618;2022-09-20T11:58:53;4.90;;;3.10;;
6336;SDS011;3201;49.962;11.618;2022-09-20T12:01:29;7.37;;;2.60;;
6336;SDS011;3201;49.962;11.618;2022-09-20T12:03:59;8.23;;;3.10;;
6336;SDS011;3201;49.962;11.618;2022-09-20T12:06:29;9.77;;;2.90;;
6336;SDS011;3201;49.962;11.618;2022-09-20T12:08:58;5.50;;;2.90;;
6336;SDS011;3201;49.962;11.618;2022-09-20T12:11:27;5.37;;;2.70;;
6336;SDS011;3201;49.962;11.618;2022-09-20T12:13:59;12.90;;;2.60;;
6336;SDS011;3201;49.962;11.618;2022-09-20T12:16:37;4.53;;;2.30;;
6336;SDS011;3201;49.962;11.618;2022-09-20T12:19:07;5.00;;;2.67;;
6336;SDS011;3201;49.962;11.618;2022-09-20T12:22:14;2.30;;;1.93;;
6336;SDS011;3201;49.962;11.618;2022-09-20T12:26:54;8.80;;;2.80;;
6336;SDS011;3201;49.962;11.618;2022-09-20T12:31:52;4.83;;;2.47;;
6336;SDS011;3201;49.962;11.618;2022-09-20T12:44:21;3.80;;;2.67;;
6336;SDS011;3201;49.962;11.618;2022-09-20T12:46:54;5.63;;;2.77;;
6336;SDS011;3201;49.962;11.618;2022-09-20T12:50:22;10.77;;;2.47;;
6336;SDS011;3201;49.962;11.618;2022-09-20T12:52:48;2.80;;;1.93;;
6336;SDS011;3201;49.962;11.618;2022-09-20T13:00:40;6.40;;;2.60;;
6336;SDS011;3201;49.962;11.618;2022-09-20T13:09:07;2.27;;;1.40;;
6336;SDS011;3201;49.962;11.618;2022-09-20T13:19:27;6.27;;;2.80;;
6336;SDS011;3201;49.962;11.618;2022-09-20T13:24:29;9.77;;;2.00;;
6336;SDS011;3201;49.962;11.618;2022-09-20T13:27:00;7.53;;;2.40;;
6336;SDS011;3201;49.962;11.618;2022-09-20T13:29:38;8.47;;;1.57;;
6336;SDS011;3201;49.962;11.618;2022-09-20T13:32:14;2.80;;;1.80;;
6336;SDS011;3201;49.962;11.618;2022-09-20T13:34:41;6.13;;;1.70;;
6336;SDS011;3201;49.962;11.618;2022-09-20T13:37:12;3.30;;;2.00;;
6336;SDS011;3201;49.962;11.618;2022-09-20T13:39:45;4.27;;;1.80;;
6336;SDS011;3201;49.962;11.618;2022-09-20T13:42:12;3.10;;;1.73;;
6336;SDS011;3201;49.962;11.618;2022-09-20T13:44:41;6.43;;;2.07;;
6336;SDS011;3201;49.962;11.618;2022-09-20T13:47:26;3.63;;;2.20;;
6336;SDS011;3201;49.962;11.618;2022-09-20T13:50:15;9.57;;;2.10;;
6336;SDS011;3201;49.962;11.618;2022-09-20T13:52:47;7.77;;;2.23;;
6336;SDS011;3201;49.962;11.618;2022-09-20T13:55:20;6.93;;;1.93;;
6336;SDS011;3201;49.962;11.618;2022-09-20T14:00:34;7.47;;;1.90;;
6336;SDS011;3201;49.962;11.618;2022-09-20T14:03:02;6.90;;;2.50;;
6336;SDS011;3201;49.962;11.618;2022-09-20T14:05:28;6.73;;;1.83;;
6336;SDS011;3201;49.962;11.618;2022-09-20T14:07:55;13.40;;;2.43;;
6336;SDS011;3201;49.962;11.618;2022-09-20T14:10:25;4.60;;;2.20;;
6336;SDS011;3201;49.962;11.618;2022-09-20T14:13:02;3.73;;;2.00;;
6336;SDS011;3201;49.962;11.618;2022-09-20T14:15:33;5.13;;;2.77;;
6336;SDS011;3201;49.962;11.618;2022-09-20T14:18:01;6.47;;;1.83;;
6336;SDS011;3201;49.962;11.618;2022-09-20T14:20:28;2.30;;;1.63;;
6336;SDS011;3201;49.962;11.618;2022-09-20T14:22:54;6.07;;;2.40;;
6336;SDS011;3201;49.962;11.618;2022-09-20T14:25:22;6.00;;;2.07;;
6336;SDS011;3201;49.962;11.618;2022-09-20T14:28:05;6.63;;;1.60;;
6336;SDS011;3201;49.962;11.618;2022-09-20T14:30:41;2.93;;;2.07;;
6336;SDS011;3201;49.962;11.618;2022-09-20T14:33:11;7.27;;;2.47;;
6336;SDS011;3201;49.962;11.618;2022-09-20T14:35:45;8.87;;;2.67;;
6336;SDS011;3201;49.962;11.618;2022-09-20T14:38:14;4.80;;;1.53;;
6336;SDS011;3201;49.962;11.618;2022-09-20T14:40:42;4.33;;;1.67;;
6336;SDS011;3201;49.962;11.618;2022-09-20T14:43:27;5.90;;;1.93;;
6336;SDS011;3201;49.962;11.618;2022-09-20T14:45:56;6.53;;;2.17;;
6336;SDS011;3201;49.962;11.618;2022-09-20T14:53:44;5.40;;;1.90;;
6336;SDS011;3201;49.962;11.618;2022-09-20T14:56:11;11.33;;;1.80;;
6336;SDS011;3201;49.962;11.618;2022-09-20T15:01:27;7.63;;;2.00;;
6336;SDS011;3201;49.962;11.618;2022-09-20T15:03:52;4.07;;;1.70;;
6336;SDS011;3201;49.962;11.618;2022-09-20T15:06:18;5.83;;;1.93;;
6336;SDS011;3201;49.962;11.618;2022-09-20T15:08:44;4.83;;;2.13;;
6336;SDS011;3201;49.962;11.618;2022-09-20T15:11:14;6.43;;;1.50;;
6336;SDS011;3201;49.962;11.618;2022-09-20T15:13:40;18.17;;;2.23;;
6336;SDS011;3201;49.962;11.618;2022-09-20T15:16:06;9.17;;;1.93;;
6336;SDS011;3201;49.962;11.618;2022-09-20T15:18:34;7.60;;;1.80;;
6336;SDS011;3201;49.962;11.618;2022-09-20T15:21:03;9.07;;;1.70;;
6336;SDS011;3201;49.962;11.618;2022-09-20T15:23:30;6.57;;;2.10;;
6336;SDS011;3201;49.962;11.618;2022-09-20T15:25:55;12.20;;;2.17;;
6336;SDS011;3201;49.962;11.618;2022-09-20T15:28:21;7.67;;;2.40;;
6336;SDS011;3201;49.962;11.618;2022-09-20T15:30:47;5.17;;;2.03;;
6336;SDS011;3201;49.962;11.618;2022-09-20T15:33:14;4.40;;;1.80;;
6336;SDS011;3201;49.962;11.618;2022-09-20T15:35:41;9.30;;;1.80;;
6336;SDS011;3201;49.962;11.618;2022-09-20T15:38:07;5.80;;;1.50;;
6336;SDS011;3201;49.962;11.618;2022-09-20T15:40:35;10.70;;;2.23;;
6336;SDS011;3201;49.962;11.618;2022-09-20T15:43:03;11.20;;;2.40;;
6336;SDS011;3201;49.962;11.618;2022-09-20T15:45:28;4.97;;;1.90;;
6336;SDS011;3201;49.962;11.618;2022-09-20T15:47:54;8.03;;;2.80;;
6336;SDS011;3201;49.962;11.618;2022-09-20T15:50:22;4.83;;;1.80;;
6336;SDS011;3201;49.962;11.618;2022-09-20T15:52:48;5.83;;;1.50;;
6336;SDS011;3201;49.962;11.618;2022-09-20T15:55:15;12.10;;;2.30;;
6336;SDS011;3201;49.962;11.618;2022-09-20T15:57:42;4.10;;;2.50;;
6336;SDS011;3201;49.962;11.618;2022-09-20T16:00:08;5.10;;;1.57;;
6336;SDS011;3201;49.962;11.618;2022-09-20T16:02:34;5.07;;;1.73;;
6336;SDS011;3201;49.962;11.618;2022-09-20T16:04:59;4.50;;;2.13;;
6336;SDS011;3201;49.962;11.618;2022-09-20T16:07:26;6.87;;;2.20;;
6336;SDS011;3201;49.962;11.618;2022-09-20T16:09:52;5.37;;;1.80;;
6336;SDS011;3201;49.962;11.618;2022-09-20T16:12:19;2.33;;;1.40;;
6336;SDS011;3201;49.962;11.618;2022-09-20T16:14:45;3.57;;;1.43;;
6336;SDS011;3201;49.962;11.618;2022-09-20T16:17:11;8.80;;;1.90;;
6336;SDS011;3201;49.962;11.618;2022-09-20T16:19:36;2.23;;;1.40;;
6336;SDS011;3201;49.962;11.618;2022-09-20T16:22:02;6.90;;;2.30;;
6336;SDS011;3201;49.962;11.618;2022-09-20T16:24:29;4.93;;;1.70;;
6336;SDS011;3201;49.962;11.618;2022-09-20T16:26:57;3.07;;;1.60;;
6336;SDS011;3201;49.962;11.618;2022-09-20T16:29:22;5.20;;;1.90;;
6336;SDS011;3201;49.962;11.618;2022-09-20T16:31:49;4.33;;;1.70;;
6336;SDS011;3201;49.962;11.618;2022-09-20T16:36:44;4.13;;;1.97;;
6336;SDS011;3201;49.962;11.618;2022-09-20T16:39:11;2.03;;;1.40;;
6336;SDS011;3201;49.962;11.618;2022-09-20T16:41:37;3.77;;;1.60;;
6336;SDS011;3201;49.962;11.618;2022-09-20T16:44:03;6.10;;;2.00;;
6336;SDS011;3201;49.962;11.618;2022-09-20T16:46:29;4.70;;;1.90;;
6336;SDS011;3201;49.962;11.618;2022-09-20T16:48:57;7.43;;;2.70;;
6336;SDS011;3201;49.962;11.618;2022-09-20T16:51:27;10.23;;;2.83;;
6336;SDS011;3201;49.962;11.618;2022-09-20T16:53:56;8.17;;;1.70;;
6336;SDS011;3201;49.962;11.618;2022-09-20T16:56:23;2.40;;;1.63;;
6336;SDS011;3201;49.962;11.618;2022-09-20T16:58:50;4.10;;;1.87;;
6336;SDS011;3201;49.962;11.618;2022-09-20T17:01:16;2.93;;;1.40;;
6336;SDS011;3201;49.962;11.618;2022-09-20T17:03:42;5.67;;;1.60;;
6336;SDS011;3201;49.962;11.618;2022-09-20T17:06:09;5.03;;;1.97;;
6336;SDS011;3201;49.962;11.618;2022-09-20T17:08:34;3.63;;;1.50;;
6336;SDS011;3201;49.962;11.618;2022-09-20T17:11:06;5.50;;;1.70;;
6336;SDS011;3201;49.962;11.618;2022-09-20T17:13:33;3.33;;;1.50;;
6336;SDS011;3201;49.962;11.618;2022-09-20T17:16:01;6.03;;;1.80;;
6336;SDS011;3201;49.962;11.618;2022-09-20T17:18:28;4.90;;;1.57;;
6336;SDS011;3201;49.962;11.618;2022-09-20T17:20:54;3.43;;;1.23;;
6336;SDS011;3201;49.962;11.618;2022-09-20T17:23:19;4.67;;;1.37;;
6336;SDS011;3201;49.962;11.618;2022-09-20T17:25:45;4.47;;;1.70;;
6336;SDS011;3201;49.962;11.618;2022-09-20T17:28:12;1.80;;;1.30;;
6336;SDS011;3201;49.962;11.618;2022-09-20T17:30:38;5.53;;;1.50;;
6336;SDS011;3201;49.962;11.618;2022-09-20T17:33:05;2.90;;;1.57;;
6336;SDS011;3201;49.962;11.618;2022-09-20T17:35:31;3.67;;;1.57;;
6336;SDS011;3201;49.962;11.618;2022-09-20T17:37:56;3.87;;;1.60;;
6336;SDS011;3201;49.962;11.618;2022-09-20T17:40:22;3.00;;;1.73;;
6336;SDS011;3201;49.962;11.618;2022-09-20T17:42:47;4.00;;;1.63;;
6336;SDS011;3201;49.962;11.618;2022-09-20T17:45:13;2.80;;;1.20;;
6336;SDS011;3201;49.962;11.618;2022-09-20T17:47:38;1.80;;;1.00;;
6336;SDS011;3201;49.962;11.618;2022-09-20T17:50:06;2.87;;;1.40;;
6336;SDS011;3201;49.962;11.618;2022-09-20T17:52:33;3.07;;;1.63;;
6336;SDS011;3201;49.962;11.618;2022-09-20T17:54:58;3.50;;;1.70;;
6336;SDS011;3201;49.962;11.618;2022-09-20T17:57:23;3.80;;;2.17;;
6336;SDS011;3201;49.962;11.618;2022-09-20T17:59:49;3.17;;;1.40;;
6336;SDS011;3201;49.962;11.618;2022-09-20T18:02:14;4.20;;;1.13;;
6336;SDS011;3201;49.962;11.618;2022-09-20T18:04:40;5.57;;;2.20;;
6336;SDS011;3201;49.962;11.618;2022-09-20T18:07:06;2.83;;;1.57;;
6336;SDS011;3201;49.962;11.618;2022-09-20T18:09:32;2.77;;;1.37;;
6336;SDS011;3201;49.962;11.618;2022-09-20T18:11:57;2.17;;;1.13;;
6336;SDS011;3201;49.962;11.618;2022-09-20T18:14:24;3.00;;;1.20;;
6336;SDS011;3201;49.962;11.618;2022-09-20T18:16:53;2.27;;;1.60;;
6336;SDS011;3201;49.962;11.618;2022-09-20T18:19:21;3.97;;;1.73;;
6336;SDS011;3201;49.962;11.618;2022-09-20T18:21:46;3.33;;;1.17;;
6336;SDS011;3201;49.962;11.618;2022-09-20T18:24:12;2.00;;;1.03;;
6336;SDS011;3201;49.962;11.618;2022-09-20T18:26:37;3.00;;;1.23;;
6336;SDS011;3201;49.962;11.618;2022-09-20T18:29:05;4.57;;;1.30;;
6336;SDS011;3201;49.962;11.618;2022-09-20T18:34:09;2.80;;;1.33;;
6336;SDS011;3201;49.962;11.618;2022-09-20T18:36:37;2.57;;;1.30;;
6336;SDS011;3201;49.962;11.618;2022-09-20T18:39:04;3.47;;;1.40;;
6336;SDS011;3201;49.962;11.618;2022-09-20T18:41:31;3.03;;;1.60;;
6336;SDS011;3201;49.962;11.618;2022-09-20T18:43:58;5.10;;;1.33;;
6336;SDS011;3201;49.962;11.618;2022-09-20T18:46:26;3.70;;;1.57;;
6336;SDS011;3201;49.962;11.618;2022-09-20T18:48:53;2.17;;;1.10;;
6336;SDS011;3201;49.962;11.618;2022-09-20T18:51:20;2.20;;;1.20;;
6336;SDS011;3201;49.962;11.618;2022-09-20T18:53:46;2.67;;;1.20;;
6336;SDS011;3201;49.962;11.618;2022-09-20T18:56:28;7.33;;;1.70;;
6336;SDS011;3201;49.962;11.618;2022-09-20T18:58:57;2.07;;;1.13;;
6336;SDS011;3201;49.962;11.618;2022-09-20T19:04:21;1.73;;;1.30;;
6336;SDS011;3201;49.962;11.618;2022-09-20T19:07:12;3.30;;;1.60;;
6336;SDS011;3201;49.962;11.618;2022-09-20T19:09:45;2.60;;;1.37;;
6336;SDS011;3201;49.962;11.618;2022-09-20T19:12:23;2.17;;;1.23;;